Terminal Aerodrome Forecast
Issued by NWS

Home | Current Version | Previous Version | Text Only | Print | Product List | Glossary On
Versions: 1 2 3 4 5 6 7 8 9 10 11 12 13 14 15 16 17 18
000
FTUS44 KCRP 220537
TAFALI
TAF
KALI 220537Z 2206/2306 14006KT P6SM SCT012 SCT250
      TEMPO 2206/2210 5SM BR BKN012
     FM221000 14006KT 6SM BR SCT010
      TEMPO 2210/2214 4SM BR BKN010
     FM221500 15010KT P6SM BKN035
     FM221900 13014G21KT P6SM BKN050
     FM230100 13010KT P6SM SCT050 SCT250=

USA.gov is the U.S. government's official web portal to all federal, state and local government web resources and services.